Time;durP1;ratioP1;P1;durP2;ratioP2;P2;SDS_P1;SDS_P2;PMS_P1;PMS_P2;Temp;Humidity;BMP_temperature;BMP_pressure;BME280_temperature;BME280_humidity;BME280_pressure;Samples;Min_cycle;Max_cycle;Signal;HPM_P1;HPM_P2
2023/07/09 00:01:53;;;;;;;2.35;1.40;;;;;;;23.98;43.96;101584.09;16103244;19;130911;-54
2023/07/09 00:07:27;;;;;;;2.75;1.77;;;;;;;23.96;43.90;101589.97;16107942;19;130159;-53
2023/07/09 00:12:49;;;;;;;1.35;1.00;;;;;;;23.96;44.03;101601.16;16113767;19;130933;-55
2023/07/09 00:18:11;;;;;;;2.35;1.23;;;;;;;23.96;43.94;101606.72;16117373;19;130066;-53
2023/07/09 00:23:33;;;;;;;1.38;1.20;;;;;;;23.95;43.66;101604.19;16119686;19;130468;-55
2023/07/09 00:28:55;;;;;;;2.58;1.25;;;;;;;23.95;44.29;101610.63;16120891;19;129974;-54
2023/07/09 00:34:18;;;;;;;2.60;1.42;;;;;;;23.94;43.89;101608.09;16117528;19;131212;-55
2023/07/09 00:39:40;;;;;;;1.38;1.20;;;;;;;23.93;44.20;101607.25;16116039;19;130422;-56
2023/07/09 00:45:18;;;;;;;1.90;1.40;;;;;;;23.93;44.02;101612.84;16116119;19;130836;-55
2023/07/09 00:50:48;;;;;;;2.00;1.20;;;;;;;23.92;43.95;101611.16;16119208;19;129993;-53
2023/07/09 00:56:19;;;;;;;2.35;1.30;;;;;;;23.92;44.28;101616.75;16114321;19;129606;-57
2023/07/09 01:01:42;;;;;;;1.85;1.10;;;;;;;23.91;43.82;101605.84;16111516;19;129771;-52
2023/07/09 01:07:05;;;;;;;1.90;1.00;;;;;;;23.90;43.80;101613.38;16109834;19;132162;-55
2023/07/09 01:12:26;;;;;;;2.42;1.50;;;;;;;23.91;43.84;101617.84;16110978;19;129741;-53
2023/07/09 01:17:53;;;;;;;8.73;1.70;;;;;;;23.91;44.06;101620.66;16110845;19;129606;-55
2023/07/09 01:23:16;;;;;;;2.13;1.20;;;;;;;23.91;44.11;101623.44;16107538;19;131171;-57
2023/07/09 01:28:41;;;;;;;10.05;1.90;;;;;;;23.92;44.19;101621.50;16114016;19;131578;-55
2023/07/09 01:34:05;;;;;;;6.28;1.42;;;;;;;23.92;44.16;101633.50;16109738;19;130735;-50
2023/07/09 01:39:28;;;;;;;3.05;1.20;;;;;;;23.91;44.40;101629.03;16108045;19;129744;-56
2023/07/09 01:44:53;;;;;;;8.90;1.70;;;;;;;23.92;44.22;101624.31;16107371;19;130229;-52
2023/07/09 01:50:16;;;;;;;4.82;1.40;;;;;;;23.91;44.06;101623.44;16110447;19;130763;-56
2023/07/09 01:55:38;;;;;;;4.97;1.38;;;;;;;23.92;44.03;101630.72;16115990;19;134046;-56
2023/07/09 02:01:00;;;;;;;5.05;1.35;;;;;;;23.92;44.07;101629.91;16107767;19;130009;-54
2023/07/09 02:06:24;;;;;;;4.20;1.50;;;;;;;23.91;44.15;101628.19;16100795;19;129737;-53
2023/07/09 02:11:46;;;;;;;6.18;1.50;;;;;;;23.90;44.11;101618.97;16102435;19;130427;-51
2023/07/09 02:17:08;;;;;;;3.75;1.17;;;;;;;23.90;44.25;101621.75;16101707;19;130985;-54
2023/07/09 02:22:31;;;;;;;2.78;1.20;;;;;;;23.90;44.15;101618.13;16108261;19;130902;-54
2023/07/09 02:27:53;;;;;;;3.03;1.40;;;;;;;23.89;44.31;101619.25;16111375;19;131247;-56
2023/07/09 02:33:15;;;;;;;3.25;1.63;;;;;;;23.89;44.37;101617.28;16102527;19;131275;-55
2023/07/09 02:38:37;;;;;;;2.67;1.45;;;;;;;23.90;44.30;101615.34;16106404;19;130939;-55
2023/07/09 02:43:59;;;;;;;2.08;1.15;;;;;;;23.90;44.17;101624.56;16114706;19;130269;-56
2023/07/09 02:49:22;;;;;;;2.40;1.25;;;;;;;23.91;44.25;101614.22;16106111;19;130813;-53
2023/07/09 02:54:44;;;;;;;3.58;1.17;;;;;;;23.90;44.17;101620.94;16123279;19;129351;-55
2023/07/09 03:00:07;;;;;;;2.17;1.13;;;;;;;23.90;44.21;101607.78;16122095;19;130479;-53
2023/07/09 03:05:29;;;;;;;3.10;1.20;;;;;;;23.89;44.25;101611.69;16117147;19;129898;-54
2023/07/09 03:10:51;;;;;;;1.17;0.93;;;;;;;23.90;44.15;101613.38;16119174;19;130323;-56
2023/07/09 03:16:13;;;;;;;1.00;0.90;;;;;;;23.90;44.17;101618.13;16117347;19;131079;-56
2023/07/09 03:21:35;;;;;;;2.10;1.00;;;;;;;23.90;44.51;101618.97;16117501;19;130894;-54
2023/07/09 03:26:57;;;;;;;2.38;1.23;;;;;;;23.89;44.36;101614.47;16117924;19;131445;-54
2023/07/09 03:32:19;;;;;;;3.00;1.33;;;;;;;23.89;44.32;101622.88;16120788;19;130368;-51
2023/07/09 03:37:41;;;;;;;4.22;1.02;;;;;;;23.88;44.21;101615.59;16119093;19;130674;-55
2023/07/09 03:43:08;;;;;;;1.63;0.80;;;;;;;23.87;44.52;101619.50;16115266;19;129878;-55
2023/07/09 03:48:30;;;;;;;2.13;1.20;;;;;;;23.87;44.23;101624.25;16116373;19;130519;-56
2023/07/09 03:53:52;;;;;;;3.15;1.00;;;;;;;23.85;44.29;101613.34;16116426;19;130205;-54
2023/07/09 03:59:14;;;;;;;5.25;1.17;;;;;;;23.86;44.16;101617.81;16120100;19;130891;-52
2023/07/09 04:04:36;;;;;;;5.40;1.30;;;;;;;23.85;44.32;101624.53;16112901;19;130095;-54
2023/07/09 04:09:58;;;;;;;2.30;1.10;;;;;;;23.85;44.21;101620.88;16113271;19;133500;-53
2023/07/09 04:15:20;;;;;;;5.25;1.10;;;;;;;23.84;44.35;101613.59;16112669;19;130656;-52
2023/07/09 04:20:42;;;;;;;1.65;0.90;;;;;;;23.82;44.33;101611.91;16111387;19;131999;-55
2023/07/09 04:26:08;;;;;;;3.45;1.20;;;;;;;23.83;44.32;101612.75;16113669;19;130607;-54
2023/07/09 04:31:30;;;;;;;1.38;1.13;;;;;;;23.81;44.27;101621.41;16111360;19;130138;-54
2023/07/09 04:36:52;;;;;;;4.05;1.30;;;;;;;23.81;44.35;101612.19;16112513;19;130400;-52
2023/07/09 04:42:16;;;;;;;4.30;1.08;;;;;;;23.81;44.17;101614.97;16114124;19;129993;-53
2023/07/09 04:47:39;;;;;;;1.80;1.10;;;;;;;23.80;44.27;101613.28;16113160;19;134646;-55
2023/07/09 04:53:01;;;;;;;1.10;1.00;;;;;;;23.81;44.57;101612.19;16112381;19;129527;-53
2023/07/09 04:58:23;;;;;;;2.45;1.20;;;;;;;23.79;44.41;101614.38;16109544;19;130599;-53
2023/07/09 05:03:45;;;;;;;1.50;1.10;;;;;;;23.80;44.27;101632.84;16114004;19;130690;-50
2023/07/09 05:09:08;;;;;;;3.65;1.25;;;;;;;23.80;44.26;101616.94;16109634;19;129306;-55
2023/07/09 05:14:30;;;;;;;1.30;1.00;;;;;;;23.81;44.26;101637.31;16102741;19;131449;-52
2023/07/09 05:19:52;;;;;;;2.28;1.48;;;;;;;23.81;44.37;101631.75;16111893;19;129354;-53
2023/07/09 05:25:14;;;;;;;1.88;1.10;;;;;;;23.81;44.35;101638.19;16113560;19;129652;-53
2023/07/09 05:30:36;;;;;;;1.88;1.10;;;;;;;23.83;44.59;101646.28;16111558;19;129866;-54
2023/07/09 05:35:58;;;;;;;1.50;1.05;;;;;;;23.84;44.25;101635.94;16112401;19;131234;-54
2023/07/09 05:41:19;;;;;;;1.98;1.25;;;;;;;23.84;44.40;101631.22;16107181;19;130370;-52
2023/07/09 05:46:41;;;;;;;1.95;1.30;;;;;;;23.85;44.14;101643.22;16114145;19;129554;-55
2023/07/09 05:52:04;;;;;;;5.72;1.20;;;;;;;23.85;44.40;101643.22;16110963;19;130460;-57
2023/07/09 05:57:26;;;;;;;4.40;1.77;;;;;;;23.86;44.34;101644.91;16113426;19;129691;-54
2023/07/09 06:02:48;;;;;;;2.00;1.55;;;;;;;23.86;44.45;101650.50;16112848;19;131098;-55
2023/07/09 06:08:12;;;;;;;2.35;1.40;;;;;;;23.88;44.10;101656.66;16109396;19;129560;-56
2023/07/09 06:13:34;;;;;;;2.47;1.40;;;;;;;23.87;44.64;101658.63;16113184;19;130507;-52
2023/07/09 06:18:56;;;;;;;6.07;3.03;;;;;;;23.90;45.13;101655.28;16111900;19;130056;-53
2023/07/09 06:24:18;;;;;;;7.45;3.50;;;;;;;23.95;45.66;101652.56;16106063;19;133689;-53
2023/07/09 06:29:40;;;;;;;4.85;2.95;;;;;;;24.03;45.67;101655.97;16110279;19;130198;-56
2023/07/09 06:35:03;;;;;;;5.95;3.00;;;;;;;24.07;45.39;101654.31;16111119;19;129504;-53
2023/07/09 06:40:25;;;;;;;8.05;2.97;;;;;;;24.12;45.85;101660.81;16105723;19;130264;-59
2023/07/09 06:45:58;;;;;;;8.65;3.17;;;;;;;24.28;46.29;101660.97;16107137;19;130862;-58
2023/07/09 06:51:20;;;;;;;7.40;3.22;;;;;;;24.37;46.43;101669.72;16108432;19;130004;-58
2023/07/09 06:56:42;;;;;;;6.60;3.25;;;;;;;24.45;46.75;101666.41;16107778;19;131522;-59
2023/07/09 07:02:04;;;;;;;9.05;4.07;;;;;;;24.54;46.74;101664.78;16108683;19;129372;-58
2023/07/09 07:07:26;;;;;;;6.90;2.95;;;;;;;24.62;46.56;101665.38;16106084;19;129877;-59
2023/07/09 07:12:48;;;;;;;7.55;3.40;;;;;;;24.68;46.59;101673.53;16102469;19;130030;-57
2023/07/09 07:18:10;;;;;;;4.90;3.28;;;;;;;24.73;46.44;101669.97;16106577;19;129908;-58
2023/07/09 07:23:32;;;;;;;4.25;3.35;;;;;;;24.72;46.27;101671.06;16108304;19;130790;-59
2023/07/09 07:28:54;;;;;;;6.47;3.40;;;;;;;24.71;46.34;101669.38;16108908;19;131247;-59
2023/07/09 07:34:16;;;;;;;6.13;3.53;;;;;;;24.70;46.33;101665.72;16110584;19;129624;-58
2023/07/09 07:39:38;;;;;;;9.80;4.25;;;;;;;24.71;46.52;101664.63;16116693;19;134635;-61
2023/07/09 07:45:01;;;;;;;5.97;2.92;;;;;;;24.69;46.08;101660.41;16123742;19;129695;-62
2023/07/09 07:50:22;;;;;;;4.50;2.85;;;;;;;24.65;46.28;101656.47;16118571;19;129744;-57
2023/07/09 07:55:45;;;;;;;5.75;3.10;;;;;;;24.62;45.89;101666.25;16120540;19;129527;-57
2023/07/09 08:01:07;;;;;;;10.93;3.28;;;;;;;24.61;46.19;101672.13;16118467;19;129931;-57
2023/07/09 08:06:31;;;;;;;6.32;3.05;;;;;;;24.60;46.14;101667.63;16115553;19;130470;-54
2023/07/09 08:11:53;;;;;;;8.07;3.03;;;;;;;24.61;45.87;101666.53;16119365;19;130040;-56
2023/07/09 08:17:15;;;;;;;6.65;3.17;;;;;;;24.60;46.12;101664.84;16118703;19;131019;-56
2023/07/09 08:22:37;;;;;;;6.53;3.00;;;;;;;24.60;45.87;101668.47;16115083;19;130573;-60
2023/07/09 08:28:01;;;;;;;5.27;3.07;;;;;;;24.60;45.87;101656.44;16120615;19;131037;-57
2023/07/09 08:33:24;;;;;;;6.53;2.80;;;;;;;24.57;45.84;101655.88;16115713;19;130640;-56
2023/07/09 08:38:46;;;;;;;5.18;2.72;;;;;;;24.57;45.71;101653.06;16112747;19;130743;-56
2023/07/09 08:44:23;;;;;;;7.35;2.90;;;;;;;24.58;45.77;101646.38;16113920;19;129895;-57
2023/07/09 08:49:58;;;;;;;5.70;2.65;;;;;;;24.58;45.43;101651.97;16111199;19;130792;-57
2023/07/09 08:55:23;;;;;;;4.90;2.55;;;;;;;24.58;45.53;101651.09;16115546;19;129836;-58
2023/07/09 09:01:05;;;;;;;;;;;;;;;24.55;45.28;101646.91;16116205;19;130454;-56
2023/07/09 09:06:31;;;;;;;3.75;2.60;;;;;;;24.58;45.66;101651.97;16112092;19;130458;-56
2023/07/09 09:12:08;;;;;;;3.35;2.47;;;;;;;24.57;45.42;101636.28;16114399;19;133708;-57
2023/07/09 09:17:34;;;;;;;4.35;2.30;;;;;;;24.56;45.63;101628.16;16113249;19;131456;-58
2023/07/09 09:23:08;;;;;;;2.70;1.98;;;;;;;24.57;45.14;101622.28;16108910;19;130817;-60
2023/07/09 09:28:35;;;;;;;8.45;2.45;;;;;;;24.57;45.44;101624.25;16109445;19;131190;-57
2023/07/09 09:33:58;;;;;;;3.90;2.30;;;;;;;24.56;45.34;101620.63;16111550;19;129556;-57
2023/07/09 09:39:20;;;;;;;4.07;2.47;;;;;;;24.56;45.09;101620.63;16109182;19;131543;-57
2023/07/09 09:44:44;;;;;;;2.67;2.00;;;;;;;24.57;45.13;101635.44;16112211;19;129504;-57
2023/07/09 09:50:10;;;;;;;2.55;2.05;;;;;;;24.56;45.32;101640.19;16115651;19;129740;-57
2023/07/09 09:55:34;;;;;;;3.85;2.33;;;;;;;24.56;45.53;101659.78;16118653;19;129861;-57
2023/07/09 10:01:02;;;;;;;5.37;2.67;;;;;;;24.55;45.41;101663.69;16116325;19;129893;-57
2023/07/09 10:06:46;;;;;;;6.00;2.25;;;;;;;24.57;45.57;101671.78;16117227;19;129764;-54
2023/07/09 10:12:18;;;;;;;9.60;2.45;;;;;;;24.57;45.34;101678.25;16115360;19;130741;-56
2023/07/09 10:17:46;;;;;;;4.25;2.60;;;;;;;24.57;45.30;101675.44;16115708;19;130289;-56
2023/07/09 10:23:32;;;;;;;7.03;2.13;;;;;;;24.58;45.53;101684.66;16113631;19;129566;-54
2023/07/09 10:29:07;;;;;;;3.03;2.20;;;;;;;24.58;45.20;101674.34;16115449;19;130297;-58
2023/07/09 10:34:47;;;;;;;3.38;2.20;;;;;;;24.57;45.48;101672.66;16114723;19;130674;-57
2023/07/09 10:40:14;;;;;;;5.55;2.17;;;;;;;24.57;45.13;101678.25;16115277;19;129671;-55
2023/07/09 10:45:54;;;;;;;4.90;2.40;;;;;;;24.57;45.61;101672.66;16116718;19;129861;-57
2023/07/09 10:51:32;;;;;;;4.28;2.70;;;;;;;24.60;45.62;101687.22;16115765;19;129805;-59
2023/07/09 10:57:18;;;;;;;4.07;2.33;;;;;;;24.58;45.37;101701.44;16112772;19;129642;-59
2023/07/09 11:02:42;;;;;;;2.97;2.23;;;;;;;24.56;45.80;101706.47;16111740;19;130812;-60
2023/07/09 11:08:24;;;;;;;3.15;2.10;;;;;;;24.56;45.45;101724.13;16110610;19;129479;-61
2023/07/09 11:13:54;;;;;;;4.63;2.60;;;;;;;24.56;45.78;101749.28;16117132;19;131301;-61
2023/07/09 11:19:19;;;;;;;2.45;2.03;;;;;;;24.55;45.55;101764.38;16124158;19;130209;-59
2023/07/09 11:24:52;;;;;;;6.30;2.72;;;;;;;24.57;45.74;101776.16;16122847;19;129401;-59
2023/07/09 11:30:26;;;;;;;4.65;2.90;;;;;;;24.56;45.53;101770.81;16122112;19;130684;-59
2023/07/09 11:35:52;;;;;;;6.45;3.00;;;;;;;24.55;45.83;101771.94;16123018;19;130342;-58
2023/07/09 11:41:40;;;;;;;7.82;3.22;;;;;;;24.56;45.62;101771.66;16121978;19;130224;-59
2023/07/09 11:47:08;;;;;;;4.30;2.80;;;;;;;24.55;45.50;101769.97;16121015;19;131031;-59
2023/07/09 11:52:46;;;;;;;7.28;3.03;;;;;;;24.56;45.71;101760.47;16123675;19;129559;-58
2023/07/09 11:58:14;;;;;;;6.07;2.90;;;;;;;24.56;45.67;101765.22;16121169;19;129764;-58
2023/07/09 12:03:42;;;;;;;4.88;2.67;;;;;;;24.56;45.93;101768.88;16123019;19;130537;-57
2023/07/09 12:09:05;;;;;;;5.32;2.60;;;;;;;24.56;45.85;101768.00;16120110;19;129590;-58
2023/07/09 12:14:27;;;;;;;5.60;2.80;;;;;;;24.54;45.60;101731.94;16120733;19;131026;-58
2023/07/09 12:19:52;;;;;;;12.15;8.05;;;;;;;24.57;46.62;101759.38;16120441;19;129587;-57
2023/07/09 12:25:26;;;;;;;16.83;8.20;;;;;;;24.62;46.97;101771.69;16117170;19;131882;-57
2023/07/09 12:30:51;;;;;;;15.77;8.63;;;;;;;24.59;46.96;101736.72;16117859;19;131031;-57
2023/07/09 12:36:13;;;;;;;18.77;7.80;;;;;;;24.56;46.67;101726.91;16119019;19;129484;-57
2023/07/09 12:41:38;;;;;;;9.00;6.32;;;;;;;24.56;46.83;101728.84;16117383;19;129775;-55
2023/07/09 12:47:01;;;;;;;14.52;5.80;;;;;;;24.54;46.85;101740.31;16115785;19;129938;-55
2023/07/09 12:52:24;;;;;;;9.05;5.68;;;;;;;24.56;46.84;101776.41;16117462;19;129550;-56
2023/07/09 12:57:46;;;;;;;13.38;5.57;;;;;;;24.57;47.15;101845.22;16116350;19;130325;-58
2023/07/09 13:03:14;;;;;;;12.02;6.38;;;;;;;24.60;47.72;101933.41;16110240;19;129881;-56
2023/07/09 13:08:44;;;;;;;12.30;6.85;;;;;;;24.62;48.08;101976.78;16116487;19;130175;-52
2023/07/09 13:14:20;;;;;;;16.58;7.78;;;;;;;24.63;48.18;101894.56;16114699;19;129283;-57
2023/07/09 13:19:42;;;;;;;13.50;6.45;;;;;;;24.65;48.50;101863.50;16116227;19;129792;-54
2023/07/09 13:25:07;;;;;;;12.05;6.03;;;;;;;24.66;48.36;101859.59;16113025;19;130536;-54
2023/07/09 13:30:29;;;;;;;15.07;6.27;;;;;;;24.65;48.42;101863.50;16114005;19;130426;-56
2023/07/09 13:35:53;;;;;;;16.33;5.78;;;;;;;24.66;48.33;101856.78;16108300;19;130365;-54
2023/07/09 13:41:21;;;;;;;13.80;5.82;;;;;;;24.66;48.37;101800.84;16106461;19;131052;-54
2023/07/09 13:46:43;;;;;;;13.15;5.65;;;;;;;24.68;48.56;101787.44;16113131;19;130717;-56
2023/07/09 13:52:09;;;;;;;12.38;5.65;;;;;;;24.67;48.64;101788.53;16107167;19;131027;-51
2023/07/09 13:57:31;;;;;;;11.02;5.03;;;;;;;24.67;48.78;101791.34;16111757;19;130376;-56
2023/07/09 14:02:53;;;;;;;14.43;5.80;;;;;;;24.63;50.49;101793.81;16114784;19;129752;-55
2023/07/09 14:08:16;;;;;;;13.85;5.75;;;;;;;24.49;50.94;101793.44;16109627;19;131754;-55
2023/07/09 14:13:39;;;;;;;10.73;5.32;;;;;;;24.42;51.51;101798.38;16108006;19;135082;-55
2023/07/09 14:19:01;;;;;;;13.23;5.38;;;;;;;24.43;51.93;101777.69;16106052;19;129970;-55
2023/07/09 14:24:28;;;;;;;8.75;5.07;;;;;;;24.49;51.48;101771.06;16103036;19;129663;-55
2023/07/09 14:29:50;;;;;;;12.98;4.70;;;;;;;24.55;51.54;101758.78;16109083;19;130669;-51
2023/07/09 14:35:20;;;;;;;11.07;4.55;;;;;;;24.63;51.31;101753.81;16104903;19;130236;-55
2023/07/09 14:40:45;;;;;;;7.05;3.95;;;;;;;24.69;51.42;101752.75;16105627;19;129691;-53
2023/07/09 14:46:06;;;;;;;7.97;4.10;;;;;;;24.73;51.05;101753.91;16105425;19;132579;-56
2023/07/09 14:51:29;;;;;;;8.20;3.63;;;;;;;24.77;51.30;101757.00;16123904;19;129974;-49
2023/07/09 14:56:52;;;;;;;9.50;4.35;;;;;;;24.79;51.81;101736.03;16123679;19;131600;-54
2023/07/09 15:02:35;;;;;;;6.97;3.95;;;;;;;24.85;51.63;101739.69;16124639;19;130329;-53
2023/07/09 15:07:57;;;;;;;6.35;3.70;;;;;;;24.84;51.36;101741.66;16121727;19;129474;-54
2023/07/09 15:13:22;;;;;;;8.25;3.75;;;;;;;24.88;51.53;101748.44;16124860;19;130255;-54
2023/07/09 15:18:43;;;;;;;8.60;4.50;;;;;;;24.91;51.73;101754.59;16122794;19;129148;-55
2023/07/09 15:24:16;;;;;;;12.07;4.28;;;;;;;24.93;51.35;101763.56;16115786;19;129871;-54
2023/07/09 15:29:38;;;;;;;14.38;5.40;;;;;;;24.86;51.44;101767.41;16128283;19;131326;-56
2023/07/09 15:34:59;;;;;;;14.63;4.82;;;;;;;24.80;51.54;101779.69;16117407;19;131150;-56
2023/07/09 15:40:23;;;;;;;16.42;4.93;;;;;;;24.83;51.71;101776.38;16119785;19;130037;-56
2023/07/09 15:45:48;;;;;;;11.27;4.30;;;;;;;24.88;51.53;101773.63;16119281;19;130788;-56
2023/07/09 15:51:10;;;;;;;;;;;;;;;24.88;51.68;101779.22;16120362;19;129505;-56
2023/07/09 15:56:33;;;;;;;11.40;4.25;;;;;;;24.95;51.27;101783.75;16118116;19;130632;-57
2023/07/09 16:01:56;;;;;;;11.40;4.10;;;;;;;24.96;51.29;101786.25;16118546;19;130644;-56
2023/07/09 16:07:18;;;;;;;13.07;4.57;;;;;;;24.98;51.18;101783.22;16122553;19;130783;-57
2023/07/09 16:12:40;;;;;;;12.70;4.30;;;;;;;24.98;51.15;101777.63;16115566;19;130981;-57
2023/07/09 16:18:10;;;;;;;10.02;4.25;;;;;;;25.01;51.14;101780.72;16117561;19;130067;-56
2023/07/09 16:23:32;;;;;;;9.07;3.63;;;;;;;25.03;50.93;101778.50;16119429;19;130714;-57
2023/07/09 16:28:54;;;;;;;10.98;4.20;;;;;;;25.03;50.74;101792.50;16118858;19;130742;-57
2023/07/09 16:34:16;;;;;;;18.08;4.50;;;;;;;25.05;50.54;101783.81;16117209;19;131104;-58
2023/07/09 16:39:42;;;;;;;24.40;5.03;;;;;;;25.06;50.57;101779.91;16116133;19;133896;-55
2023/07/09 16:45:05;;;;;;;7.85;4.25;;;;;;;25.05;50.16;101783.81;16115005;19;130664;-55
2023/07/09 16:50:27;;;;;;;13.32;4.97;;;;;;;25.02;50.05;101773.16;16115833;19;130045;-55
2023/07/09 16:55:50;;;;;;;10.95;4.68;;;;;;;25.03;50.22;101774.84;16115078;19;129684;-58
2023/07/09 17:01:13;;;;;;;10.68;4.60;;;;;;;25.01;50.02;101777.91;16114981;19;130713;-57
2023/07/09 17:06:35;;;;;;;10.20;3.97;;;;;;;25.01;49.80;101788.25;16114533;19;130471;-55
2023/07/09 17:11:58;;;;;;;7.45;4.07;;;;;;;25.00;50.13;101784.63;16119416;19;130533;-55
2023/07/09 17:17:21;;;;;;;11.38;4.05;;;;;;;25.00;49.75;101797.75;16115401;19;129478;-57
2023/07/09 17:22:45;;;;;;;9.82;4.88;;;;;;;24.97;49.70;101804.75;16110502;19;130154;-54
2023/07/09 17:28:20;;;;;;;9.50;5.20;;;;;;;24.94;49.99;101824.88;16113184;19;130092;-56
2023/07/09 17:33:42;;;;;;;8.02;5.22;;;;;;;24.88;49.79;101828.72;16114905;19;130607;-57
2023/07/09 17:39:04;;;;;;;16.05;5.57;;;;;;;24.83;49.46;101832.34;16113868;19;131291;-57
2023/07/09 17:44:27;;;;;;;12.85;5.88;;;;;;;24.80;49.05;101843.22;16113624;19;130404;-54
2023/07/09 17:49:51;;;;;;;12.02;5.93;;;;;;;24.80;49.15;101851.63;16113285;19;129943;-57
2023/07/09 17:55:15;;;;;;;8.03;5.00;;;;;;;24.76;48.94;101848.47;16107953;19;134033;-56
2023/07/09 18:00:37;;;;;;;11.73;5.15;;;;;;;24.73;49.26;101854.63;16112362;19;129616;-57
2023/07/09 18:05:59;;;;;;;14.90;5.20;;;;;;;24.66;49.14;101854.00;16112694;19;129891;-54
2023/07/09 18:11:28;;;;;;;11.70;5.13;;;;;;;24.61;48.77;101851.16;16108810;19;130446;-57
2023/07/09 18:16:51;;;;;;;12.98;5.38;;;;;;;24.58;48.41;101866.50;16113277;19;130550;-56
2023/07/09 18:22:17;;;;;;;9.07;4.40;;;;;;;24.55;48.48;101867.88;16109126;19;130185;-58
2023/07/09 18:27:43;;;;;;;9.98;4.35;;;;;;;24.53;48.14;101861.72;16110324;19;131141;-58
2023/07/09 18:33:06;;;;;;;9.88;4.53;;;;;;;24.55;47.90;101870.69;16108881;19;130795;-55
2023/07/09 18:38:28;;;;;;;23.13;5.53;;;;;;;24.53;48.27;101872.91;16103499;19;129679;-57
2023/07/09 18:43:50;;;;;;;12.55;4.50;;;;;;;24.53;48.09;101869.28;16111090;19;129234;-59
2023/07/09 18:49:13;;;;;;;14.07;4.82;;;;;;;24.52;47.83;101878.78;16110678;19;129706;-62
2023/07/09 18:54:35;;;;;;;10.40;4.78;;;;;;;24.52;47.71;101882.41;16112523;19;131246;-66
2023/07/09 18:59:57;;;;;;;9.90;4.97;;;;;;;24.45;47.49;101878.97;16108856;19;130223;-66
2023/07/09 19:05:18;;;;;;;7.68;4.90;;;;;;;24.39;47.30;101885.59;16109857;19;129933;-65
2023/07/09 19:10:40;;;;;;;10.18;4.38;;;;;;;24.33;47.11;101892.25;16110755;19;131402;-63
2023/07/09 19:16:03;;;;;;;11.40;5.55;;;;;;;24.11;46.59;101879.13;16108169;19;129498;-61
2023/07/09 19:21:29;;;;;;;8.20;4.55;;;;;;;23.99;46.75;101889.59;16105970;19;129662;-60
2023/07/09 19:26:53;;;;;;;9.43;3.83;;;;;;;23.99;46.64;101884.00;16103552;19;130203;-62
2023/07/09 19:32:26;;;;;;;14.52;3.85;;;;;;;24.02;46.39;101870.34;16108789;19;130039;-59
2023/07/09 19:37:49;;;;;;;8.52;3.40;;;;;;;24.04;46.03;101854.16;16122672;19;131004;-60
2023/07/09 19:43:13;;;;;;;8.88;3.03;;;;;;;24.03;45.54;101866.44;16123129;19;131292;-59
2023/07/09 19:48:35;;;;;;;10.40;2.70;;;;;;;24.01;45.07;101876.19;16124370;19;129582;-61
2023/07/09 19:53:57;;;;;;;6.28;2.42;;;;;;;24.01;45.21;101878.97;16122087;19;131399;-59
2023/07/09 19:59:19;;;;;;;9.63;2.65;;;;;;;24.00;44.95;101878.16;16119621;19;131328;-59
2023/07/09 20:04:44;;;;;;;10.23;2.75;;;;;;;24.01;44.96;101895.75;16120153;19;130686;-59
2023/07/09 20:10:06;;;;;;;16.58;3.03;;;;;;;24.09;44.99;101909.28;16118798;19;129719;-58
2023/07/09 20:15:28;;;;;;;15.52;2.63;;;;;;;24.14;45.52;101914.94;16120958;19;130797;-59
2023/07/09 20:20:53;;;;;;;7.05;2.65;;;;;;;24.17;45.23;101917.22;16115782;19;129336;-59
2023/07/09 20:26:16;;;;;;;9.38;2.53;;;;;;;24.21;44.93;101926.78;16117722;19;129071;-59
2023/07/09 20:31:38;;;;;;;7.60;2.20;;;;;;;24.22;44.97;101911.69;16114870;19;129719;-59
2023/07/09 20:37:00;;;;;;;11.00;2.60;;;;;;;24.25;45.28;101927.97;16115338;19;129372;-59
2023/07/09 20:42:22;;;;;;;7.13;2.22;;;;;;;24.27;45.52;101922.94;16120080;19;130328;-59
2023/07/09 20:47:45;;;;;;;6.72;2.53;;;;;;;24.29;45.06;101925.50;16116192;19;130519;-59
2023/07/09 20:53:14;;;;;;;5.88;2.67;;;;;;;24.30;45.37;101917.94;16118956;19;130300;-58
2023/07/09 20:58:37;;;;;;;9.52;2.78;;;;;;;24.31;45.47;101920.47;16118195;19;129881;-60
2023/07/09 21:03:59;;;;;;;9.93;2.60;;;;;;;24.29;45.50;101916.25;16114368;19;130837;-58
2023/07/09 21:09:29;;;;;;;17.73;3.78;;;;;;;24.32;45.36;101932.53;16117073;19;130833;-55
2023/07/09 21:14:51;;;;;;;8.27;3.05;;;;;;;24.31;45.48;101925.25;16113129;19;131994;-57
2023/07/09 21:20:17;;;;;;;8.75;2.60;;;;;;;24.33;45.31;101928.63;16110863;19;130964;-57
2023/07/09 21:25:38;;;;;;;13.48;2.80;;;;;;;24.35;45.24;101943.19;16114551;19;130685;-57
2023/07/09 21:31:02;;;;;;;8.13;2.38;;;;;;;24.36;45.22;101942.91;16115176;19;129431;-58
2023/07/09 21:36:24;;;;;;;6.78;2.53;;;;;;;24.37;45.10;101949.38;16112946;19;129396;-58
2023/07/09 21:41:49;;;;;;;8.93;2.40;;;;;;;24.37;45.29;101946.56;16111523;19;131654;-58
2023/07/09 21:47:15;;;;;;;7.10;2.30;;;;;;;24.37;45.23;101943.78;16111574;19;129491;-58
2023/07/09 21:52:38;;;;;;;8.48;2.75;;;;;;;24.37;45.20;101929.81;16112210;19;129880;-57
2023/07/09 21:58:00;;;;;;;6.15;2.38;;;;;;;24.37;45.13;101940.97;16109402;19;130851;-58
2023/07/09 22:03:22;;;;;;;9.90;2.42;;;;;;;24.36;45.14;101956.06;16109984;19;131220;-58
2023/07/09 22:08:45;;;;;;;7.60;2.50;;;;;;;24.35;45.12;101971.16;16110768;19;130872;-57
2023/07/09 22:14:14;;;;;;;9.30;2.53;;;;;;;24.35;45.25;101965.56;16112972;19;129898;-58
2023/07/09 22:19:36;;;;;;;6.78;2.40;;;;;;;24.35;45.20;101976.75;16111364;19;129661;-58
2023/07/09 22:25:13;;;;;;;6.35;2.40;;;;;;;24.35;45.04;101971.16;16106871;19;130378;-58
2023/07/09 22:30:35;;;;;;;6.78;2.80;;;;;;;24.33;45.42;101967.78;16114686;19;130076;-56
2023/07/09 22:35:57;;;;;;;5.55;2.30;;;;;;;24.32;44.99;101977.25;16109453;19;131712;-57
2023/07/09 22:41:19;;;;;;;5.38;2.40;;;;;;;24.32;45.33;101978.09;16109823;19;129739;-56
2023/07/09 22:46:43;;;;;;;4.65;2.17;;;;;;;24.32;44.94;101986.47;16111503;19;131014;-57
2023/07/09 22:52:09;;;;;;;3.70;1.92;;;;;;;24.33;44.86;101992.94;16107858;19;129667;-57
2023/07/09 22:57:32;;;;;;;3.75;2.10;;;;;;;24.33;45.00;101998.53;16112696;19;129740;-58
2023/07/09 23:02:57;;;;;;;4.60;1.83;;;;;;;24.32;44.93;101991.25;16107561;19;131459;-58
2023/07/09 23:08:25;;;;;;;3.85;1.90;;;;;;;24.33;45.13;101977.00;16115974;19;130512;-59
2023/07/09 23:13:47;;;;;;;5.03;2.00;;;;;;;24.32;44.75;101975.31;16124013;19;129633;-58
2023/07/09 23:19:22;;;;;;;3.65;2.00;;;;;;;24.33;44.92;101978.97;16122024;19;130284;-58
2023/07/09 23:24:45;;;;;;;4.68;1.88;;;;;;;24.30;45.14;101969.16;16123652;19;129998;-58
2023/07/09 23:30:18;;;;;;;6.90;2.58;;;;;;;24.31;44.92;101978.38;16121757;19;130381;-58
2023/07/09 23:35:40;;;;;;;6.45;2.33;;;;;;;24.27;45.04;101976.09;16125034;19;130830;-57
2023/07/09 23:41:10;;;;;;;4.03;2.00;;;;;;;24.27;45.14;101976.09;16123769;19;129630;-58
2023/07/09 23:46:36;;;;;;;4.45;1.90;;;;;;;24.29;44.90;101991.75;16126748;19;129965;-58
2023/07/09 23:51:58;;;;;;;2.80;1.63;;;;;;;24.29;45.14;101988.97;16124970;19;130268;-57
2023/07/09 23:57:21;;;;;;;4.60;2.00;;;;;;;24.29;45.33;102002.94;16121835;19;131509;-58
